sensor_id;sensor_type;location;lat;lon;timestamp;temperature;humidity
15288;DHT22;7745;48.708;9.026;2023-04-01T00:00:03;8.20;99.90
15288;DHT22;7745;48.708;9.026;2023-04-01T00:02:31;8.20;99.90
15288;DHT22;7745;48.708;9.026;2023-04-01T00:04:57;8.20;99.90
15288;DHT22;7745;48.708;9.026;2023-04-01T00:07:24;8.10;99.90
15288;DHT22;7745;48.708;9.026;2023-04-01T00:09:51;8.20;99.90
15288;DHT22;7745;48.708;9.026;2023-04-01T00:12:18;8.10;99.90
15288;DHT22;7745;48.708;9.026;2023-04-01T00:14:46;8.20;99.90
15288;DHT22;7745;48.708;9.026;2023-04-01T00:17:12;8.10;99.90
15288;DHT22;7745;48.708;9.026;2023-04-01T00:19:39;8.10;99.90
15288;DHT22;7745;48.708;9.026;2023-04-01T00:22:06;8.10;99.90
15288;DHT22;7745;48.708;9.026;2023-04-01T00:24:37;8.10;99.90
15288;DHT22;7745;48.708;9.026;2023-04-01T00:27:04;8.10;99.90
15288;DHT22;7745;48.708;9.026;2023-04-01T00:29:31;8.10;99.90
15288;DHT22;7745;48.708;9.026;2023-04-01T00:31:59;8.10;99.90
15288;DHT22;7745;48.708;9.026;2023-04-01T00:34:26;8.10;99.90
15288;DHT22;7745;48.708;9.026;2023-04-01T00:36:53;8.10;99.90
15288;DHT22;7745;48.708;9.026;2023-04-01T00:39:20;8.10;99.90
15288;DHT22;7745;48.708;9.026;2023-04-01T00:41:47;8.20;99.90
15288;DHT22;7745;48.708;9.026;2023-04-01T00:44:19;8.20;99.90
15288;DHT22;7745;48.708;9.026;2023-04-01T00:46:46;8.20;99.90
15288;DHT22;7745;48.708;9.026;2023-04-01T00:49:16;8.20;99.90
15288;DHT22;7745;48.708;9.026;2023-04-01T00:51:45;8.20;99.90
15288;DHT22;7745;48.708;9.026;2023-04-01T00:54:14;8.10;99.90
15288;DHT22;7745;48.708;9.026;2023-04-01T00:56:45;8.10;99.90
15288;DHT22;7745;48.708;9.026;2023-04-01T00:59:18;8.20;99.90
15288;DHT22;7745;48.708;9.026;2023-04-01T01:01:47;8.20;99.90
15288;DHT22;7745;48.708;9.026;2023-04-01T01:04:24;8.20;99.90
15288;DHT22;7745;48.708;9.026;2023-04-01T01:06:57;8.10;99.90
15288;DHT22;7745;48.708;9.026;2023-04-01T01:09:38;8.00;99.90
15288;DHT22;7745;48.708;9.026;2023-04-01T01:12:11;8.00;99.90
15288;DHT22;7745;48.708;9.026;2023-04-01T01:14:51;8.00;99.90
15288;DHT22;7745;48.708;9.026;2023-04-01T01:17:29;8.00;99.90
15288;DHT22;7745;48.708;9.026;2023-04-01T01:23:30;8.00;99.90
15288;DHT22;7745;48.708;9.026;2023-04-01T01:26:21;8.00;99.90
15288;DHT22;7745;48.708;9.026;2023-04-01T01:28:57;8.00;99.90
15288;DHT22;7745;48.708;9.026;2023-04-01T01:31:34;8.00;99.90
15288;DHT22;7745;48.708;9.026;2023-04-01T01:34:11;8.00;99.90
15288;DHT22;7745;48.708;9.026;2023-04-01T01:36:44;8.00;99.90
15288;DHT22;7745;48.708;9.026;2023-04-01T01:39:12;8.10;99.90
15288;DHT22;7745;48.708;9.026;2023-04-01T01:41:41;8.00;99.90
15288;DHT22;7745;48.708;9.026;2023-04-01T01:44:11;8.00;99.90
15288;DHT22;7745;48.708;9.026;2023-04-01T01:46:41;8.00;99.90
15288;DHT22;7745;48.708;9.026;2023-04-01T01:49:10;8.00;99.90
15288;DHT22;7745;48.708;9.026;2023-04-01T01:51:38;8.00;99.90
15288;DHT22;7745;48.708;9.026;2023-04-01T01:54:06;8.00;99.90
15288;DHT22;7745;48.708;9.026;2023-04-01T01:56:35;7.90;99.90
15288;DHT22;7745;48.708;9.026;2023-04-01T01:59:03;7.90;99.90
15288;DHT22;7745;48.708;9.026;2023-04-01T02:01:33;7.90;99.90
15288;DHT22;7745;48.708;9.026;2023-04-01T02:04:02;7.90;99.90
15288;DHT22;7745;48.708;9.026;2023-04-01T02:06:34;8.00;99.90
15288;DHT22;7745;48.708;9.026;2023-04-01T02:09:04;7.90;99.90
15288;DHT22;7745;48.708;9.026;2023-04-01T02:11:37;7.90;99.90
15288;DHT22;7745;48.708;9.026;2023-04-01T02:14:09;7.90;99.90
15288;DHT22;7745;48.708;9.026;2023-04-01T02:16:42;7.90;99.90
15288;DHT22;7745;48.708;9.026;2023-04-01T02:19:12;7.90;99.90
15288;DHT22;7745;48.708;9.026;2023-04-01T02:21:40;7.90;99.90
15288;DHT22;7745;48.708;9.026;2023-04-01T02:24:12;7.90;99.90
15288;DHT22;7745;48.708;9.026;2023-04-01T02:26:42;8.20;99.90
15288;DHT22;7745;48.708;9.026;2023-04-01T02:29:11;7.80;99.90
15288;DHT22;7745;48.708;9.026;2023-04-01T02:31:39;7.80;99.90
15288;DHT22;7745;48.708;9.026;2023-04-01T02:34:06;7.80;99.90
15288;DHT22;7745;48.708;9.026;2023-04-01T02:36:35;7.80;99.90
15288;DHT22;7745;48.708;9.026;2023-04-01T02:39:02;7.80;99.90
15288;DHT22;7745;48.708;9.026;2023-04-01T02:41:30;7.80;99.90
15288;DHT22;7745;48.708;9.026;2023-04-01T02:43:58;7.80;99.90
15288;DHT22;7745;48.708;9.026;2023-04-01T02:46:25;7.80;99.90
15288;DHT22;7745;48.708;9.026;2023-04-01T02:48:51;7.80;99.90
15288;DHT22;7745;48.708;9.026;2023-04-01T02:51:19;7.80;99.90
15288;DHT22;7745;48.708;9.026;2023-04-01T02:53:45;7.80;99.90
15288;DHT22;7745;48.708;9.026;2023-04-01T02:56:12;7.80;99.90
15288;DHT22;7745;48.708;9.026;2023-04-01T02:58:39;7.80;99.90
15288;DHT22;7745;48.708;9.026;2023-04-01T03:01:07;7.80;99.90
15288;DHT22;7745;48.708;9.026;2023-04-01T03:03:34;7.80;99.90
15288;DHT22;7745;48.708;9.026;2023-04-01T03:06:05;7.80;99.90
15288;DHT22;7745;48.708;9.026;2023-04-01T03:08:32;7.80;99.90
15288;DHT22;7745;48.708;9.026;2023-04-01T03:10:59;7.80;99.90
15288;DHT22;7745;48.708;9.026;2023-04-01T03:13:25;7.70;99.90
15288;DHT22;7745;48.708;9.026;2023-04-01T03:15:52;7.80;99.90
15288;DHT22;7745;48.708;9.026;2023-04-01T03:18:20;7.70;99.90
15288;DHT22;7745;48.708;9.026;2023-04-01T03:20:47;7.70;99.90
15288;DHT22;7745;48.708;9.026;2023-04-01T03:23:14;7.70;99.90
15288;DHT22;7745;48.708;9.026;2023-04-01T03:25:42;7.70;99.90
15288;DHT22;7745;48.708;9.026;2023-04-01T03:28:09;7.70;99.90
15288;DHT22;7745;48.708;9.026;2023-04-01T03:30:37;7.70;99.90
15288;DHT22;7745;48.708;9.026;2023-04-01T03:33:04;7.70;99.90
15288;DHT22;7745;48.708;9.026;2023-04-01T03:35:32;7.70;99.90
15288;DHT22;7745;48.708;9.026;2023-04-01T03:38:01;7.70;99.90
15288;DHT22;7745;48.708;9.026;2023-04-01T03:40:28;7.70;99.90
15288;DHT22;7745;48.708;9.026;2023-04-01T03:42:55;7.70;99.90
15288;DHT22;7745;48.708;9.026;2023-04-01T03:45:22;7.70;99.90
15288;DHT22;7745;48.708;9.026;2023-04-01T03:47:48;7.70;99.90
15288;DHT22;7745;48.708;9.026;2023-04-01T03:50:15;7.70;99.90
15288;DHT22;7745;48.708;9.026;2023-04-01T03:52:45;7.70;99.90
15288;DHT22;7745;48.708;9.026;2023-04-01T03:55:12;7.70;99.90
15288;DHT22;7745;48.708;9.026;2023-04-01T03:57:38;7.70;99.90
15288;DHT22;7745;48.708;9.026;2023-04-01T04:00:06;7.60;99.90
15288;DHT22;7745;48.708;9.026;2023-04-01T04:02:34;7.60;99.90
15288;DHT22;7745;48.708;9.026;2023-04-01T04:05:01;7.50;99.90
15288;DHT22;7745;48.708;9.026;2023-04-01T04:07:28;7.60;99.90
15288;DHT22;7745;48.708;9.026;2023-04-01T04:09:56;7.50;99.90
15288;DHT22;7745;48.708;9.026;2023-04-01T04:12:23;7.50;99.90
15288;DHT22;7745;48.708;9.026;2023-04-01T04:14:50;7.50;99.90
15288;DHT22;7745;48.708;9.026;2023-04-01T04:17:16;7.40;99.90
15288;DHT22;7745;48.708;9.026;2023-04-01T04:19:43;7.40;99.90
15288;DHT22;7745;48.708;9.026;2023-04-01T04:22:10;7.40;99.90
15288;DHT22;7745;48.708;9.026;2023-04-01T04:24:37;7.40;99.90
15288;DHT22;7745;48.708;9.026;2023-04-01T04:27:05;7.40;99.90
15288;DHT22;7745;48.708;9.026;2023-04-01T04:29:33;7.50;99.90
15288;DHT22;7745;48.708;9.026;2023-04-01T04:31:59;7.30;99.90
15288;DHT22;7745;48.708;9.026;2023-04-01T04:34:26;7.30;99.90
15288;DHT22;7745;48.708;9.026;2023-04-01T04:36:53;7.30;99.90
15288;DHT22;7745;48.708;9.026;2023-04-01T04:39:20;7.30;99.90
15288;DHT22;7745;48.708;9.026;2023-04-01T04:41:46;7.20;99.90
15288;DHT22;7745;48.708;9.026;2023-04-01T04:44:14;7.20;99.90
15288;DHT22;7745;48.708;9.026;2023-04-01T04:46:41;7.20;99.90
15288;DHT22;7745;48.708;9.026;2023-04-01T04:49:08;7.20;99.90
15288;DHT22;7745;48.708;9.026;2023-04-01T04:51:35;7.20;99.90
15288;DHT22;7745;48.708;9.026;2023-04-01T04:54:02;7.20;99.90
15288;DHT22;7745;48.708;9.026;2023-04-01T04:56:29;7.20;99.90
15288;DHT22;7745;48.708;9.026;2023-04-01T04:58:56;7.20;99.90
15288;DHT22;7745;48.708;9.026;2023-04-01T05:01:25;7.20;99.90
15288;DHT22;7745;48.708;9.026;2023-04-01T05:03:51;7.30;99.90
15288;DHT22;7745;48.708;9.026;2023-04-01T05:06:19;7.30;99.90
15288;DHT22;7745;48.708;9.026;2023-04-01T05:08:46;7.30;99.90
15288;DHT22;7745;48.708;9.026;2023-04-01T05:11:14;7.40;99.90
15288;DHT22;7745;48.708;9.026;2023-04-01T05:13:42;7.40;99.90
15288;DHT22;7745;48.708;9.026;2023-04-01T05:16:10;7.40;99.90
15288;DHT22;7745;48.708;9.026;2023-04-01T05:18:38;7.50;99.90
15288;DHT22;7745;48.708;9.026;2023-04-01T05:21:07;7.50;99.90
15288;DHT22;7745;48.708;9.026;2023-04-01T05:23:34;7.60;99.90
15288;DHT22;7745;48.708;9.026;2023-04-01T05:26:03;7.60;99.90
15288;DHT22;7745;48.708;9.026;2023-04-01T05:28:30;7.70;99.90
15288;DHT22;7745;48.708;9.026;2023-04-01T05:30:58;7.80;99.90
15288;DHT22;7745;48.708;9.026;2023-04-01T05:33:25;7.80;99.90
15288;DHT22;7745;48.708;9.026;2023-04-01T05:35:53;7.80;99.90
15288;DHT22;7745;48.708;9.026;2023-04-01T05:38:20;7.90;99.90
15288;DHT22;7745;48.708;9.026;2023-04-01T05:40:47;7.90;99.90
15288;DHT22;7745;48.708;9.026;2023-04-01T05:43:14;7.90;99.90
15288;DHT22;7745;48.708;9.026;2023-04-01T05:45:40;7.90;99.90
15288;DHT22;7745;48.708;9.026;2023-04-01T05:48:07;8.00;99.90
15288;DHT22;7745;48.708;9.026;2023-04-01T05:50:34;8.00;99.90
15288;DHT22;7745;48.708;9.026;2023-04-01T05:53:02;8.10;99.90
15288;DHT22;7745;48.708;9.026;2023-04-01T05:55:29;8.20;99.90
15288;DHT22;7745;48.708;9.026;2023-04-01T05:57:56;8.20;99.90
15288;DHT22;7745;48.708;9.026;2023-04-01T06:00:23;8.20;99.90
15288;DHT22;7745;48.708;9.026;2023-04-01T06:02:50;8.30;99.90
15288;DHT22;7745;48.708;9.026;2023-04-01T06:05:19;8.40;99.90
15288;DHT22;7745;48.708;9.026;2023-04-01T06:07:47;8.40;99.90
15288;DHT22;7745;48.708;9.026;2023-04-01T06:10:18;8.50;99.90
15288;DHT22;7745;48.708;9.026;2023-04-01T06:12:50;8.50;99.90
15288;DHT22;7745;48.708;9.026;2023-04-01T06:15:34;8.80;99.90
15288;DHT22;7745;48.708;9.026;2023-04-01T06:21:00;8.60;99.90
15288;DHT22;7745;48.708;9.026;2023-04-01T06:23:44;8.60;99.90
15288;DHT22;7745;48.708;9.026;2023-04-01T06:26:24;8.70;99.90
15288;DHT22;7745;48.708;9.026;2023-04-01T06:29:42;8.60;99.90
15288;DHT22;7745;48.708;9.026;2023-04-01T06:32:24;8.60;99.90
15288;DHT22;7745;48.708;9.026;2023-04-01T06:38:02;8.50;99.90
15288;DHT22;7745;48.708;9.026;2023-04-01T06:43:42;8.50;99.90
15288;DHT22;7745;48.708;9.026;2023-04-01T06:46:17;8.70;99.90
15288;DHT22;7745;48.708;9.026;2023-04-01T06:48:59;8.50;99.90
15288;DHT22;7745;48.708;9.026;2023-04-01T06:51:37;8.60;99.90
15288;DHT22;7745;48.708;9.026;2023-04-01T06:54:10;8.60;99.90
15288;DHT22;7745;48.708;9.026;2023-04-01T06:56:41;8.60;99.90
15288;DHT22;7745;48.708;9.026;2023-04-01T06:59:15;8.60;99.90
15288;DHT22;7745;48.708;9.026;2023-04-01T07:01:47;8.50;99.90
15288;DHT22;7745;48.708;9.026;2023-04-01T07:04:24;8.70;99.90
15288;DHT22;7745;48.708;9.026;2023-04-01T07:07:14;8.60;99.90
15288;DHT22;7745;48.708;9.026;2023-04-01T07:09:49;8.60;99.90
15288;DHT22;7745;48.708;9.026;2023-04-01T07:12:23;8.60;99.90
15288;DHT22;7745;48.708;9.026;2023-04-01T07:14:58;8.70;99.90
15288;DHT22;7745;48.708;9.026;2023-04-01T07:17:32;8.70;99.90
15288;DHT22;7745;48.708;9.026;2023-04-01T07:20:11;8.70;99.90
15288;DHT22;7745;48.708;9.026;2023-04-01T07:22:45;8.70;99.90
15288;DHT22;7745;48.708;9.026;2023-04-01T07:25:21;8.80;99.90
15288;DHT22;7745;48.708;9.026;2023-04-01T07:28:15;8.70;99.90
15288;DHT22;7745;48.708;9.026;2023-04-01T07:31:29;8.50;99.90
15288;DHT22;7745;48.708;9.026;2023-04-01T07:34:23;8.40;99.90
15288;DHT22;7745;48.708;9.026;2023-04-01T07:36:54;8.60;99.90
15288;DHT22;7745;48.708;9.026;2023-04-01T07:39:36;8.60;99.90
15288;DHT22;7745;48.708;9.026;2023-04-01T07:42:11;8.70;99.90
15288;DHT22;7745;48.708;9.026;2023-04-01T07:44:46;8.70;99.90
15288;DHT22;7745;48.708;9.026;2023-04-01T07:47:34;8.70;99.90
15288;DHT22;7745;48.708;9.026;2023-04-01T07:50:17;8.80;99.90
15288;DHT22;7745;48.708;9.026;2023-04-01T07:53:01;9.00;99.90
15288;DHT22;7745;48.708;9.026;2023-04-01T07:55:47;9.00;99.90
15288;DHT22;7745;48.708;9.026;2023-04-01T07:58:24;9.10;99.90
15288;DHT22;7745;48.708;9.026;2023-04-01T08:01:04;9.00;99.90
15288;DHT22;7745;48.708;9.026;2023-04-01T08:22:38;9.00;99.90
15288;DHT22;7745;48.708;9.026;2023-04-01T08:25:13;9.00;99.90
15288;DHT22;7745;48.708;9.026;2023-04-01T08:28:13;9.10;99.90
15288;DHT22;7745;48.708;9.026;2023-04-01T08:31:00;9.00;99.90
15288;DHT22;7745;48.708;9.026;2023-04-01T08:34:17;9.10;99.90
15288;DHT22;7745;48.708;9.026;2023-04-01T09:06:37;8.90;99.90
15288;DHT22;7745;48.708;9.026;2023-04-01T09:09:51;9.00;99.90
15288;DHT22;7745;48.708;9.026;2023-04-01T09:12:37;9.40;99.90
15288;DHT22;7745;48.708;9.026;2023-04-01T09:15:49;9.40;99.90
15288;DHT22;7745;48.708;9.026;2023-04-01T09:21:43;9.60;99.90
15288;DHT22;7745;48.708;9.026;2023-04-01T09:24:46;9.90;99.90
15288;DHT22;7745;48.708;9.026;2023-04-01T09:27:26;10.10;99.90
15288;DHT22;7745;48.708;9.026;2023-04-01T09:59:44;9.40;99.90
15288;DHT22;7745;48.708;9.026;2023-04-01T10:09:11;9.40;99.90
15288;DHT22;7745;48.708;9.026;2023-04-01T10:12:05;9.40;99.90
15288;DHT22;7745;48.708;9.026;2023-04-01T10:14:49;9.50;99.90
15288;DHT22;7745;48.708;9.026;2023-04-01T10:17:43;9.70;99.90
15288;DHT22;7745;48.708;9.026;2023-04-01T10:20:46;9.80;99.90
15288;DHT22;7745;48.708;9.026;2023-04-01T10:23:44;9.80;99.90
15288;DHT22;7745;48.708;9.026;2023-04-01T10:26:34;9.90;99.90
15288;DHT22;7745;48.708;9.026;2023-04-01T10:29:30;10.00;99.90
15288;DHT22;7745;48.708;9.026;2023-04-01T10:35:24;10.30;99.90
15288;DHT22;7745;48.708;9.026;2023-04-01T10:44:58;10.90;99.90
15288;DHT22;7745;48.708;9.026;2023-04-01T10:50:49;10.90;99.90
15288;DHT22;7745;48.708;9.026;2023-04-01T10:53:31;11.00;99.90
15288;DHT22;7745;48.708;9.026;2023-04-01T10:56:29;10.70;99.90
15288;DHT22;7745;48.708;9.026;2023-04-01T11:05:38;10.30;99.90
15288;DHT22;7745;48.708;9.026;2023-04-01T11:11:28;10.40;99.90
15288;DHT22;7745;48.708;9.026;2023-04-01T11:14:24;10.30;99.90
15288;DHT22;7745;48.708;9.026;2023-04-01T11:17:27;10.30;99.90
15288;DHT22;7745;48.708;9.026;2023-04-01T11:29:18;10.50;99.90
15288;DHT22;7745;48.708;9.026;2023-04-01T11:31:55;10.60;99.90
15288;DHT22;7745;48.708;9.026;2023-04-01T11:34:53;10.70;99.90
15288;DHT22;7745;48.708;9.026;2023-04-01T11:37:37;10.60;99.90
15288;DHT22;7745;48.708;9.026;2023-04-01T11:40:14;10.80;99.90
15288;DHT22;7745;48.708;9.026;2023-04-01T11:42:53;10.60;99.90
15288;DHT22;7745;48.708;9.026;2023-04-01T11:45:39;10.60;99.90
15288;DHT22;7745;48.708;9.026;2023-04-01T11:48:36;10.50;99.90
15288;DHT22;7745;48.708;9.026;2023-04-01T11:51:19;10.40;99.90
15288;DHT22;7745;48.708;9.026;2023-04-01T11:53:53;10.40;99.90
15288;DHT22;7745;48.708;9.026;2023-04-01T11:56:35;10.40;99.90
15288;DHT22;7745;48.708;9.026;2023-04-01T12:08:15;10.60;99.90
15288;DHT22;7745;48.708;9.026;2023-04-01T12:11:14;10.60;99.90
15288;DHT22;7745;48.708;9.026;2023-04-01T12:18:00;10.50;99.90
15288;DHT22;7745;48.708;9.026;2023-04-01T12:21:03;10.50;99.90
15288;DHT22;7745;48.708;9.026;2023-04-01T12:24:03;10.50;99.90
15288;DHT22;7745;48.708;9.026;2023-04-01T12:27:02;10.50;99.90
15288;DHT22;7745;48.708;9.026;2023-04-01T12:29:55;10.70;99.90
15288;DHT22;7745;48.708;9.026;2023-04-01T12:32:41;10.40;99.90
15288;DHT22;7745;48.708;9.026;2023-04-01T12:35:21;10.70;99.90
15288;DHT22;7745;48.708;9.026;2023-04-01T12:37:58;10.40;99.90
15288;DHT22;7745;48.708;9.026;2023-04-01T12:40:40;10.40;99.90
15288;DHT22;7745;48.708;9.026;2023-04-01T12:43:41;10.50;99.90
15288;DHT22;7745;48.708;9.026;2023-04-01T12:46:34;10.60;99.90
15288;DHT22;7745;48.708;9.026;2023-04-01T12:52:16;10.70;99.90
15288;DHT22;7745;48.708;9.026;2023-04-01T12:55:02;10.90;99.90
15288;DHT22;7745;48.708;9.026;2023-04-01T13:01:18;11.00;99.90
15288;DHT22;7745;48.708;9.026;2023-04-01T13:04:25;11.00;99.90
15288;DHT22;7745;48.708;9.026;2023-04-01T13:07:07;11.00;99.90
15288;DHT22;7745;48.708;9.026;2023-04-01T13:09:46;11.00;99.90
15288;DHT22;7745;48.708;9.026;2023-04-01T13:12:28;10.80;99.90
15288;DHT22;7745;48.708;9.026;2023-04-01T13:15:16;10.80;99.90
15288;DHT22;7745;48.708;9.026;2023-04-01T13:17:52;10.80;99.90
15288;DHT22;7745;48.708;9.026;2023-04-01T13:20:31;10.80;99.90
15288;DHT22;7745;48.708;9.026;2023-04-01T13:23:18;11.00;99.90
15288;DHT22;7745;48.708;9.026;2023-04-01T13:26:21;11.00;99.90
15288;DHT22;7745;48.708;9.026;2023-04-01T13:29:23;10.90;99.90
15288;DHT22;7745;48.708;9.026;2023-04-01T13:32:18;11.10;99.90
15288;DHT22;7745;48.708;9.026;2023-04-01T13:36:05;11.10;99.90
15288;DHT22;7745;48.708;9.026;2023-04-01T13:41:49;10.70;99.90
15288;DHT22;7745;48.708;9.026;2023-04-01T13:44:37;11.30;99.90
15288;DHT22;7745;48.708;9.026;2023-04-01T13:47:51;10.90;99.90
15288;DHT22;7745;48.708;9.026;2023-04-01T13:53:35;11.00;99.90
15288;DHT22;7745;48.708;9.026;2023-04-01T13:56:23;11.00;99.90
15288;DHT22;7745;48.708;9.026;2023-04-01T13:59:03;11.20;99.90
15288;DHT22;7745;48.708;9.026;2023-04-01T14:01:40;11.10;99.90
15288;DHT22;7745;48.708;9.026;2023-04-01T14:04:27;11.20;99.90
15288;DHT22;7745;48.708;9.026;2023-04-01T14:07:13;11.10;99.90
15288;DHT22;7745;48.708;9.026;2023-04-01T14:10:01;11.20;99.90
15288;DHT22;7745;48.708;9.026;2023-04-01T14:12:39;10.90;99.90
15288;DHT22;7745;48.708;9.026;2023-04-01T14:15:26;11.00;99.90
15288;DHT22;7745;48.708;9.026;2023-04-01T14:20:59;11.10;99.90
15288;DHT22;7745;48.708;9.026;2023-04-01T14:23:46;10.90;99.90
15288;DHT22;7745;48.708;9.026;2023-04-01T14:26:26;11.00;99.90
15288;DHT22;7745;48.708;9.026;2023-04-01T14:29:03;11.10;99.90
15288;DHT22;7745;48.708;9.026;2023-04-01T14:31:43;11.00;99.90
15288;DHT22;7745;48.708;9.026;2023-04-01T14:34:24;11.00;99.90
15288;DHT22;7745;48.708;9.026;2023-04-01T14:37:11;10.90;99.90
15288;DHT22;7745;48.708;9.026;2023-04-01T14:39:57;10.80;99.90
15288;DHT22;7745;48.708;9.026;2023-04-01T14:42:45;10.70;99.90
15288;DHT22;7745;48.708;9.026;2023-04-01T14:48:21;10.70;99.90
15288;DHT22;7745;48.708;9.026;2023-04-01T14:50:51;10.60;99.90
15288;DHT22;7745;48.708;9.026;2023-04-01T14:53:27;10.60;99.90
15288;DHT22;7745;48.708;9.026;2023-04-01T14:55:57;10.60;99.90
15288;DHT22;7745;48.708;9.026;2023-04-01T14:58:31;10.60;99.90
15288;DHT22;7745;48.708;9.026;2023-04-01T15:01:17;10.60;99.90
15288;DHT22;7745;48.708;9.026;2023-04-01T15:03:52;10.60;99.90
15288;DHT22;7745;48.708;9.026;2023-04-01T15:06:43;10.60;99.90
15288;DHT22;7745;48.708;9.026;2023-04-01T15:09:17;10.60;99.90
15288;DHT22;7745;48.708;9.026;2023-04-01T15:11:56;10.60;99.90
15288;DHT22;7745;48.708;9.026;2023-04-01T15:14:38;10.60;99.90
15288;DHT22;7745;48.708;9.026;2023-04-01T15:17:22;10.60;99.90
15288;DHT22;7745;48.708;9.026;2023-04-01T15:20:10;10.60;99.90
15288;DHT22;7745;48.708;9.026;2023-04-01T15:22:50;10.60;99.90
15288;DHT22;7745;48.708;9.026;2023-04-01T15:25:35;10.50;99.90
15288;DHT22;7745;48.708;9.026;2023-04-01T15:28:10;10.50;99.90
15288;DHT22;7745;48.708;9.026;2023-04-01T15:30:48;10.50;99.90
15288;DHT22;7745;48.708;9.026;2023-04-01T15:36:24;10.40;99.90
15288;DHT22;7745;48.708;9.026;2023-04-01T15:38:56;10.50;99.90
15288;DHT22;7745;48.708;9.026;2023-04-01T15:41:35;10.40;99.90
15288;DHT22;7745;48.708;9.026;2023-04-01T15:47:01;10.50;99.90
15288;DHT22;7745;48.708;9.026;2023-04-01T15:49:35;10.40;99.90
15288;DHT22;7745;48.708;9.026;2023-04-01T15:52:13;10.40;99.90
15288;DHT22;7745;48.708;9.026;2023-04-01T15:55:00;10.50;99.90
15288;DHT22;7745;48.708;9.026;2023-04-01T15:57:42;10.30;99.90
15288;DHT22;7745;48.708;9.026;2023-04-01T16:00:19;10.20;99.90
15288;DHT22;7745;48.708;9.026;2023-04-01T16:05:52;10.30;99.90
15288;DHT22;7745;48.708;9.026;2023-04-01T16:11:43;9.90;99.90
15288;DHT22;7745;48.708;9.026;2023-04-01T16:14:24;9.90;99.90
15288;DHT22;7745;48.708;9.026;2023-04-01T16:17:02;10.00;99.90
15288;DHT22;7745;48.708;9.026;2023-04-01T16:19:45;9.90;99.90
15288;DHT22;7745;48.708;9.026;2023-04-01T16:22:20;10.10;99.90
15288;DHT22;7745;48.708;9.026;2023-04-01T16:24:51;9.90;99.90
15288;DHT22;7745;48.708;9.026;2023-04-01T16:27:27;9.90;99.90
15288;DHT22;7745;48.708;9.026;2023-04-01T16:30:01;10.00;99.90
15288;DHT22;7745;48.708;9.026;2023-04-01T16:32:37;10.00;99.90
15288;DHT22;7745;48.708;9.026;2023-04-01T16:35:39;10.00;99.90
15288;DHT22;7745;48.708;9.026;2023-04-01T16:41:16;10.00;99.90
15288;DHT22;7745;48.708;9.026;2023-04-01T16:43:51;10.00;99.90
15288;DHT22;7745;48.708;9.026;2023-04-01T16:46:35;10.10;99.90
15288;DHT22;7745;48.708;9.026;2023-04-01T16:49:32;10.20;99.90
15288;DHT22;7745;48.708;9.026;2023-04-01T16:52:51;10.10;99.90
15288;DHT22;7745;48.708;9.026;2023-04-01T16:55:34;10.00;99.90
15288;DHT22;7745;48.708;9.026;2023-04-01T16:58:06;10.00;99.90
15288;DHT22;7745;48.708;9.026;2023-04-01T17:00:44;10.00;99.90
15288;DHT22;7745;48.708;9.026;2023-04-01T17:03:33;10.00;99.90
15288;DHT22;7745;48.708;9.026;2023-04-01T17:06:39;10.00;99.90
15288;DHT22;7745;48.708;9.026;2023-04-01T17:09:27;10.00;99.90
15288;DHT22;7745;48.708;9.026;2023-04-01T17:12:00;10.00;99.90
15288;DHT22;7745;48.708;9.026;2023-04-01T17:14:54;9.90;99.90
15288;DHT22;7745;48.708;9.026;2023-04-01T17:17:48;9.90;99.90
15288;DHT22;7745;48.708;9.026;2023-04-01T17:20:40;9.80;99.90
15288;DHT22;7745;48.708;9.026;2023-04-01T17:23:27;9.90;99.90
15288;DHT22;7745;48.708;9.026;2023-04-01T17:26:11;9.80;99.90
15288;DHT22;7745;48.708;9.026;2023-04-01T17:28:56;9.80;99.90
15288;DHT22;7745;48.708;9.026;2023-04-01T17:31:40;9.80;99.90
15288;DHT22;7745;48.708;9.026;2023-04-01T17:34:44;9.80;99.90
15288;DHT22;7745;48.708;9.026;2023-04-01T17:37:25;9.80;99.90
15288;DHT22;7745;48.708;9.026;2023-04-01T17:40:06;9.80;99.90
15288;DHT22;7745;48.708;9.026;2023-04-01T17:42:54;9.80;99.90
15288;DHT22;7745;48.708;9.026;2023-04-01T17:45:30;9.80;99.90
15288;DHT22;7745;48.708;9.026;2023-04-01T17:48:03;9.70;99.90
15288;DHT22;7745;48.708;9.026;2023-04-01T17:51:07;9.70;99.90
15288;DHT22;7745;48.708;9.026;2023-04-01T17:54:01;9.70;99.90
15288;DHT22;7745;48.708;9.026;2023-04-01T17:56:49;9.70;99.90
15288;DHT22;7745;48.708;9.026;2023-04-01T17:59:52;9.60;99.90
15288;DHT22;7745;48.708;9.026;2023-04-01T18:02:42;9.50;99.90
15288;DHT22;7745;48.708;9.026;2023-04-01T18:05:34;9.50;99.90
15288;DHT22;7745;48.708;9.026;2023-04-01T18:08:33;9.40;99.90
15288;DHT22;7745;48.708;9.026;2023-04-01T18:18:19;9.20;99.90
15288;DHT22;7745;48.708;9.026;2023-04-01T18:22:09;9.00;99.90
15288;DHT22;7745;48.708;9.026;2023-04-01T18:24:28;8.80;99.90
15288;DHT22;7745;48.708;9.026;2023-04-01T18:27:03;8.70;99.90
15288;DHT22;7745;48.708;9.026;2023-04-01T18:30:00;8.60;99.90
15288;DHT22;7745;48.708;9.026;2023-04-01T18:33:02;8.60;99.90
15288;DHT22;7745;48.708;9.026;2023-04-01T18:36:08;8.90;99.90
15288;DHT22;7745;48.708;9.026;2023-04-01T18:38:57;8.50;99.90
15288;DHT22;7745;48.708;9.026;2023-04-01T18:41:40;8.40;99.90
15288;DHT22;7745;48.708;9.026;2023-04-01T18:44:49;8.50;99.90
15288;DHT22;7745;48.708;9.026;2023-04-01T18:47:37;8.50;99.90
15288;DHT22;7745;48.708;9.026;2023-04-01T18:50:18;8.30;99.90
15288;DHT22;7745;48.708;9.026;2023-04-01T18:53:09;8.20;99.90
15288;DHT22;7745;48.708;9.026;2023-04-01T18:55:53;8.20;99.90
15288;DHT22;7745;48.708;9.026;2023-04-01T18:58:45;8.20;99.90
15288;DHT22;7745;48.708;9.026;2023-04-01T19:01:17;8.10;99.90
15288;DHT22;7745;48.708;9.026;2023-04-01T19:03:57;8.10;99.90
15288;DHT22;7745;48.708;9.026;2023-04-01T19:06:33;8.00;99.90
15288;DHT22;7745;48.708;9.026;2023-04-01T19:09:20;8.00;99.90
15288;DHT22;7745;48.708;9.026;2023-04-01T19:12:05;8.00;99.90
15288;DHT22;7745;48.708;9.026;2023-04-01T19:14:48;7.90;99.90
15288;DHT22;7745;48.708;9.026;2023-04-01T19:17:31;7.90;99.90
15288;DHT22;7745;48.708;9.026;2023-04-01T19:20:06;7.90;99.90
15288;DHT22;7745;48.708;9.026;2023-04-01T19:22:50;7.90;99.90
15288;DHT22;7745;48.708;9.026;2023-04-01T19:25:30;7.90;99.90
15288;DHT22;7745;48.708;9.026;2023-04-01T19:28:17;7.90;99.90
15288;DHT22;7745;48.708;9.026;2023-04-01T19:30:56;7.80;99.90
15288;DHT22;7745;48.708;9.026;2023-04-01T19:33:54;7.90;99.90
15288;DHT22;7745;48.708;9.026;2023-04-01T19:36:45;7.90;99.90
15288;DHT22;7745;48.708;9.026;2023-04-01T19:39:28;7.90;99.90
15288;DHT22;7745;48.708;9.026;2023-04-01T19:42:11;7.90;99.90
15288;DHT22;7745;48.708;9.026;2023-04-01T19:44:51;7.90;99.90
15288;DHT22;7745;48.708;9.026;2023-04-01T19:47:24;7.90;99.90
15288;DHT22;7745;48.708;9.026;2023-04-01T19:50:10;7.90;99.90
15288;DHT22;7745;48.708;9.026;2023-04-01T19:52:53;7.90;99.90
15288;DHT22;7745;48.708;9.026;2023-04-01T19:55:46;7.70;99.90
15288;DHT22;7745;48.708;9.026;2023-04-01T19:58:31;7.80;99.90
15288;DHT22;7745;48.708;9.026;2023-04-01T20:01:01;8.00;99.90
15288;DHT22;7745;48.708;9.026;2023-04-01T20:04:19;7.80;99.90
15288;DHT22;7745;48.708;9.026;2023-04-01T20:06:57;7.80;99.90
15288;DHT22;7745;48.708;9.026;2023-04-01T20:09:57;7.70;99.90
15288;DHT22;7745;48.708;9.026;2023-04-01T20:12:47;7.70;99.90
15288;DHT22;7745;48.708;9.026;2023-04-01T20:15:35;7.70;99.90
15288;DHT22;7745;48.708;9.026;2023-04-01T20:18:13;7.70;99.90